Friday, November 24, 2017, 8:10 AM EST
Back to Local

KRUT, Rutland, Rutland-southern Vermont Regional Airport

Location: North Clarendon, VT, United States Lat: 43.533
Local Time: 8:10 AM EST (13:10 GMT) Lon: -72.95
Time Zone: US/Eastern Elev: 787 ft

Show me the last for .
Show Decoded

2017-11-24 07:56 METAR KRUT 241256Z AUTO 00000KT 10SM BKN030 OVC040 01/M04 A2996 RMK AO2 SLP165
                 T00111044 FZRANO $ =
2017-11-24 07:43 METAR KRUT 241243Z AUTO 13004KT 10SM SCT028 OVC040 01/M04 A2995 RMK AO2 FZRANO $
                 =
2017-11-24 06:56 METAR KRUT 241156Z AUTO 23006KT 10SM OVC022 02/M04 A2995 RMK AO2 SLP162
                 T00171044 10017 20006 53004 FZRANO $ =
2017-11-24 05:56 METAR KRUT 241056Z AUTO 00000KT 10SM OVC022 01/M04 A2994 RMK AO2 SLP160
                 T00111044 FZRANO $ =
2017-11-24 04:56 METAR KRUT 240956Z AUTO VRB04KT 10SM OVC022 01/M04 A2994 RMK AO2 SLP159
                 T00111044 FZRANO $ =
2017-11-24 03:56 METAR KRUT 240856Z AUTO 23005KT 10SM OVC022 01/M05 A2993 RMK AO2 SLP157
                 T00111050 50002 FZRANO $ =
2017-11-24 02:56 METAR KRUT 240756Z AUTO 23008KT 10SM OVC026 01/M05 A2994 RMK AO2 SLP158
                 T00111050 FZRANO $ =
2017-11-24 01:56 METAR KRUT 240656Z AUTO 21006KT 10SM BKN028 OVC047 01/M05 A2994 RMK AO2 SLP158
                 T00111050 FZRANO $ =
2017-11-24 01:09 METAR KRUT 240609Z AUTO 20003KT 10SM BKN028 OVC045 01/M06 A2993 RMK AO2 FZRANO $
                 =
2017-11-24 00:56 METAR KRUT 240556Z AUTO 21006KT 10SM BKN030 BKN045 OVC055 01/M06 A2993 RMK AO2
                 SLP157 T00061056 10006 21028 58006 FZRANO $ =
2017-11-23 23:56 METAR KRUT 240456Z AUTO 20005KT 10SM SCT030 BKN047 OVC055 00/M06 A2994 RMK AO2
                 SLP161 T00001061 400001056 FZRANO $ =
2017-11-23 22:56 METAR KRUT 240356Z AUTO 17003KT 10SM OVC032 M01/M05 A2994 RMK AO2 SLP162
                 T10061050 FZRANO $ =
2017-11-23 21:56 METAR KRUT 240256Z AUTO 00000KT 10SM OVC090 M02/M06 A2995 RMK AO2 SLP162
                 T10221056 56005 FZRANO $ =
2017-11-23 20:56 METAR KRUT 240156Z AUTO 15004KT 10SM BKN038 OVC095 M02/M06 A2995 RMK AO2 SLP163
                 T10221061 FZRANO $ =
2017-11-23 19:56 METAR KRUT 240056Z AUTO 12004KT 10SM FEW040 OVC100 M02/M07 A2996 RMK AO2 SLP166
                 T10221067 FZRANO $ =
2017-11-23 17:56 METAR KRUT 232256Z AUTO 12004KT 10SM OVC095 M03/M07 A2996 RMK AO2 SLP166
                 T10281067 FZRANO $ =
2017-11-23 16:56 METAR KRUT 232156Z AUTO 14003KT 10SM SCT085 M03/M08 A2997 RMK AO2 SLP168
                 T10281078 FZRANO $ =
2017-11-23 15:56 METAR KRUT 232056Z AUTO 00000KT 10SM FEW095 M01/M08 A2998 RMK AO2 SLP176
                 T10111083 56011 FZRANO $ =
2017-11-23 14:56 METAR KRUT 231956Z AUTO VRB03KT 10SM OVC100 M02/M08 A2998 RMK AO2 SLP176
                 T10171083 FZRANO $ =
2017-11-23 13:56 METAR KRUT 231856Z AUTO 00000KT 10SM OVC100 M02/M08 A3000 RMK AO2 SLP181
                 T10221083 FZRANO $ =
2017-11-23 12:56 METAR KRUT 231756Z AUTO 03003KT 10SM OVC110 M03/M08 A3002 RMK AO2 SLP188
                 T10281083 11028 21056 58022 FZRANO $ =
2017-11-23 11:56 METAR KRUT 231656Z AUTO 02003KT 10SM FEW120 M03/M09 A3004 RMK AO2 SLP194
                 T10331094 FZRANO $ =
2017-11-23 10:56 METAR KRUT 231556Z AUTO 35003KT 10SM CLR M04/M09 A3006 RMK AO2 SLP204 T10391089
                 FZRANO $ =
2017-11-23 09:56 METAR KRUT 231456Z AUTO 34006KT 10SM CLR M04/M09 A3008 RMK AO2 SLP210 T10441089
                 50001 FZRANO $ =
2017-11-23 08:56 METAR KRUT 231356Z AUTO 32005KT 10SM CLR M05/M09 A3008 RMK AO2 SLP210 T10501094
                 FZRANO $ =

Support USWX by starting your Amazon purchase here.